<?xml version="1.0" encoding="UTF-8" standalone="no" ?><gpx xmlns="http://www.topografix.com/GPX/1/1" xmlns:gpxx="http://www.garmin.com/xmlschemas/GpxExtensions/v3" xmlns:wptx1="http://www.garmin.com/xmlschemas/WaypointExtension/v1" xmlns:gpxtpx="http://www.garmin.com/xmlschemas/TrackPointExtension/v1" creator="GuideVTT.com" version="1.1" xmlns:xsi="http://www.w3.org/2001/XMLSchema-instance" xsi:schemaLocation="http://www.topografix.com/GPX/1/1 http://www.topografix.com/GPX/1/1/gpx.xsd http://www.garmin.com/xmlschemas/GpxExtensions/v3 http://www8.garmin.com/xmlschemas/GpxExtensionsv3.xsd http://www.garmin.com/xmlschemas/WaypointExtension/v1 http://www8.garmin.com/xmlschemas/WaypointExtensionv1.xsd http://www.garmin.com/xmlschemas/TrackPointExtension/v1 http://www.garmin.com/xmlschemas/TrackPointExtensionv1.xsd">
<metadata><link href="http://www.garmin.com"><text>Garmin International</text></link><time>2013-06-22T15:13:50Z</time></metadata>
<trk><name>rp_2008_4.gpx</name><extensions><gpxx:TrackExtension><gpxx:DisplayColor>Cyan</gpxx:DisplayColor></gpxx:TrackExtension></extensions><trkseg>
<trkpt lat="46.10983372" lon="7.49964952"><ele>1384.916504</ele><time>2008-07-05T09:54:12Z</time></trkpt>
<trkpt lat="46.10996246" lon="7.49962807"><ele>1389.723145</ele><time>2008-07-05T09:56:38Z</time></trkpt>
<trkpt lat="46.10998392" lon="7.49945641"><ele>1388.28125</ele><time>2008-07-05T09:56:49Z</time></trkpt>
<trkpt lat="46.10996246" lon="7.49943495"><ele>1387.31958</ele><time>2008-07-05T09:56:52Z</time></trkpt>
<trkpt lat="46.10951185" lon="7.49960661"><ele>1386.358398</ele><time>2008-07-05T09:57:16Z</time></trkpt>
<trkpt lat="46.10957623" lon="7.49943495"><ele>1383.955078</ele><time>2008-07-05T09:57:21Z</time></trkpt>
<trkpt lat="46.10976934" lon="7.49937057"><ele>1382.032471</ele><time>2008-07-05T09:57:25Z</time></trkpt>
<trkpt lat="46.10998392" lon="7.49919891"><ele>1380.590576</ele><time>2008-07-05T09:57:29Z</time></trkpt>
<trkpt lat="46.11028433" lon="7.49885559"><ele>1377.226074</ele><time>2008-07-05T09:57:34Z</time></trkpt>
<trkpt lat="46.11052036" lon="7.49836206"><ele>1373.861328</ele><time>2008-07-05T09:57:40Z</time></trkpt>
<trkpt lat="46.11037016" lon="7.49782562"><ele>1372.419434</ele><time>2008-07-05T09:57:46Z</time></trkpt>
<trkpt lat="46.11039162" lon="7.49735355"><ele>1371.938477</ele><time>2008-07-05T09:57:51Z</time></trkpt>
<trkpt lat="46.11075640" lon="7.49655962"><ele>1369.5354</ele><time>2008-07-05T09:58:02Z</time></trkpt>
<trkpt lat="46.11133575" lon="7.49570131"><ele>1368.093262</ele><time>2008-07-05T09:58:16Z</time></trkpt>
<trkpt lat="46.11159325" lon="7.49544382"><ele>1367.13208</ele><time>2008-07-05T09:58:21Z</time></trkpt>
<trkpt lat="46.11240864" lon="7.49407053"><ele>1364.248047</ele><time>2008-07-05T09:58:40Z</time></trkpt>
<trkpt lat="46.11249447" lon="7.49385595"><ele>1364.248047</ele><time>2008-07-05T09:58:46Z</time></trkpt>
<trkpt lat="46.11238718" lon="7.49387741"><ele>1363.767334</ele><time>2008-07-05T09:58:52Z</time></trkpt>
<trkpt lat="46.11225843" lon="7.49383450"><ele>1361.844971</ele><time>2008-07-05T09:58:56Z</time></trkpt>
<trkpt lat="46.11204386" lon="7.49383450"><ele>1358.960938</ele><time>2008-07-05T09:59:00Z</time></trkpt>
<trkpt lat="46.11157179" lon="7.49359846"><ele>1357.03833</ele><time>2008-07-05T09:59:07Z</time></trkpt>
<trkpt lat="46.11116409" lon="7.49353409"><ele>1356.076904</ele><time>2008-07-05T09:59:17Z</time></trkpt>
<trkpt lat="46.11092806" lon="7.49366283"><ele>1355.115479</ele><time>2008-07-05T09:59:22Z</time></trkpt>
<trkpt lat="46.11075640" lon="7.49383450"><ele>1352.712158</ele><time>2008-07-05T09:59:26Z</time></trkpt>
<trkpt lat="46.11052036" lon="7.49394178"><ele>1352.231445</ele><time>2008-07-05T09:59:30Z</time></trkpt>
<trkpt lat="46.10981226" lon="7.49445677"><ele>1348.38623</ele><time>2008-07-05T09:59:50Z</time></trkpt>
<trkpt lat="46.10968351" lon="7.49430656"><ele>1347.905762</ele><time>2008-07-05T09:59:56Z</time></trkpt>
<trkpt lat="46.10942602" lon="7.49409199"><ele>1349.347656</ele><time>2008-07-05T10:00:05Z</time></trkpt>
<trkpt lat="46.10916853" lon="7.49411345"><ele>1352.231445</ele><time>2008-07-05T10:00:15Z</time></trkpt>
<trkpt lat="46.10882521" lon="7.49422073"><ele>1354.634766</ele><time>2008-07-05T10:00:29Z</time></trkpt>
<trkpt lat="46.10813856" lon="7.49458551"><ele>1360.402832</ele><time>2008-07-05T10:00:57Z</time></trkpt>
<trkpt lat="46.10781670" lon="7.49480009"><ele>1360.883545</ele><time>2008-07-05T10:01:10Z</time></trkpt>
<trkpt lat="46.10745192" lon="7.49510050"><ele>1358.480225</ele><time>2008-07-05T10:01:24Z</time></trkpt>
<trkpt lat="46.10702276" lon="7.49535799"><ele>1357.999756</ele><time>2008-07-05T10:01:39Z</time></trkpt>
<trkpt lat="46.10657215" lon="7.49574423"><ele>1358.480225</ele><time>2008-07-05T10:01:55Z</time></trkpt>
<trkpt lat="46.10590696" lon="7.49640942"><ele>1358.960938</ele><time>2008-07-05T10:02:20Z</time></trkpt>
<trkpt lat="46.10532761" lon="7.49705315"><ele>1361.844971</ele><time>2008-07-05T10:02:45Z</time></trkpt>
<trkpt lat="46.10494137" lon="7.49731064"><ele>1364.248047</ele><time>2008-07-05T10:03:00Z</time></trkpt>
<trkpt lat="46.10455513" lon="7.49765396"><ele>1365.209473</ele><time>2008-07-05T10:03:15Z</time></trkpt>
<trkpt lat="46.10429764" lon="7.49797583"><ele>1364.248047</ele><time>2008-07-05T10:03:27Z</time></trkpt>
<trkpt lat="46.10388994" lon="7.49834061"><ele>1367.612549</ele><time>2008-07-05T10:03:46Z</time></trkpt>
<trkpt lat="46.10365391" lon="7.49849081"><ele>1369.054688</ele><time>2008-07-05T10:03:59Z</time></trkpt>
<trkpt lat="46.10335350" lon="7.49859810"><ele>1371.938477</ele><time>2008-07-05T10:04:14Z</time></trkpt>
<trkpt lat="46.10294580" lon="7.49881268"><ele>1367.612549</ele><time>2008-07-05T10:04:25Z</time></trkpt>
<trkpt lat="46.10251665" lon="7.49924183"><ele>1367.612549</ele><time>2008-07-05T10:04:36Z</time></trkpt>
<trkpt lat="46.10189438" lon="7.49967098"><ele>1368.093262</ele><time>2008-07-05T10:04:54Z</time></trkpt>
<trkpt lat="46.10159397" lon="7.50007868"><ele>1372.419434</ele><time>2008-07-05T10:05:05Z</time></trkpt>
<trkpt lat="46.10118628" lon="7.50050783"><ele>1378.187256</ele><time>2008-07-05T10:05:24Z</time></trkpt>
<trkpt lat="46.09998465" lon="7.50143051"><ele>1371.938477</ele><time>2008-07-05T10:06:03Z</time></trkpt>
<trkpt lat="46.09912634" lon="7.50233173"><ele>1370.496582</ele><time>2008-07-05T10:06:29Z</time></trkpt>
<trkpt lat="46.09874010" lon="7.50248194"><ele>1375.303223</ele><time>2008-07-05T10:06:39Z</time></trkpt>
<trkpt lat="46.09839678" lon="7.50271797"><ele>1378.667969</ele><time>2008-07-05T10:06:52Z</time></trkpt>
<trkpt lat="46.09809637" lon="7.50310421"><ele>1379.62915</ele><time>2008-07-05T10:07:03Z</time></trkpt>
<trkpt lat="46.09783888" lon="7.50361919"><ele>1382.993652</ele><time>2008-07-05T10:07:15Z</time></trkpt>
<trkpt lat="46.09740973" lon="7.50409126"><ele>1382.993652</ele><time>2008-07-05T10:07:29Z</time></trkpt>
<trkpt lat="46.09691620" lon="7.50419855"><ele>1384.916504</ele><time>2008-07-05T10:07:43Z</time></trkpt>
<trkpt lat="46.09648705" lon="7.50443459"><ele>1385.396973</ele><time>2008-07-05T10:07:57Z</time></trkpt>
<trkpt lat="46.09601498" lon="7.50494957"><ele>1390.203857</ele><time>2008-07-05T10:08:14Z</time></trkpt>
<trkpt lat="46.09552145" lon="7.50522852"><ele>1392.126465</ele><time>2008-07-05T10:08:30Z</time></trkpt>
<trkpt lat="46.09515667" lon="7.50535727"><ele>1393.568359</ele><time>2008-07-05T10:08:41Z</time></trkpt>
<trkpt lat="46.09457731" lon="7.50550747"><ele>1397.413574</ele><time>2008-07-05T10:08:58Z</time></trkpt>
<trkpt lat="46.09399796" lon="7.50550747"><ele>1397.413574</ele><time>2008-07-05T10:09:12Z</time></trkpt>
<trkpt lat="46.09337568" lon="7.50533581"><ele>1399.336182</ele><time>2008-07-05T10:09:29Z</time></trkpt>
<trkpt lat="46.09290361" lon="7.50535727"><ele>1401.258789</ele><time>2008-07-05T10:09:43Z</time></trkpt>
<trkpt lat="46.09241009" lon="7.50546455"><ele>1403.181396</ele><time>2008-07-05T10:09:57Z</time></trkpt>
<trkpt lat="46.09163761" lon="7.50531435"><ele>1403.181396</ele><time>2008-07-05T10:10:21Z</time></trkpt>
<trkpt lat="46.09153032" lon="7.50533581"><ele>1402.700684</ele><time>2008-07-05T10:10:26Z</time></trkpt>
<trkpt lat="46.09150887" lon="7.50567913"><ele>1404.143066</ele><time>2008-07-05T10:10:41Z</time></trkpt>
<trkpt lat="46.09080076" lon="7.50589371"><ele>1403.662109</ele><time>2008-07-05T10:11:59Z</time></trkpt>
<trkpt lat="46.09050035" lon="7.50602245"><ele>1406.06543</ele><time>2008-07-05T10:12:10Z</time></trkpt>
<trkpt lat="46.09041452" lon="7.50623703"><ele>1409.910645</ele><time>2008-07-05T10:12:24Z</time></trkpt>
<trkpt lat="46.09043598" lon="7.50709534"><ele>1415.197998</ele><time>2008-07-05T10:12:54Z</time></trkpt>
<trkpt lat="46.09024286" lon="7.50724554"><ele>1416.639893</ele><time>2008-07-05T10:13:03Z</time></trkpt>
<trkpt lat="46.09026432" lon="7.50735283"><ele>1417.120605</ele><time>2008-07-05T10:13:07Z</time></trkpt>
<trkpt lat="46.09043598" lon="7.50750303"><ele>1417.601074</ele><time>2008-07-05T10:13:17Z</time></trkpt>
<trkpt lat="46.09052181" lon="7.50801802"><ele>1418.5625</ele><time>2008-07-05T10:13:28Z</time></trkpt>
<trkpt lat="46.09056473" lon="7.50851154"><ele>1421.446533</ele><time>2008-07-05T10:13:41Z</time></trkpt>
<trkpt lat="46.08979225" lon="7.50881195"><ele>1421.927246</ele><time>2008-07-05T10:14:03Z</time></trkpt>
<trkpt lat="46.08940601" lon="7.50889778"><ele>1423.369385</ele><time>2008-07-05T10:14:20Z</time></trkpt>
<trkpt lat="46.08947039" lon="7.50900507"><ele>1423.369385</ele><time>2008-07-05T10:14:27Z</time></trkpt>
<trkpt lat="46.08957767" lon="7.50909090"><ele>1422.407959</ele><time>2008-07-05T10:14:30Z</time></trkpt>
<trkpt lat="46.09058619" lon="7.50971317"><ele>1420.966064</ele><time>2008-07-05T10:14:53Z</time></trkpt>
<trkpt lat="46.09080076" lon="7.50988483"><ele>1423.369385</ele><time>2008-07-05T10:15:04Z</time></trkpt>
<trkpt lat="46.09097242" lon="7.51007795"><ele>1425.291748</ele><time>2008-07-05T10:15:17Z</time></trkpt>
<trkpt lat="46.09112263" lon="7.51029253"><ele>1428.175781</ele><time>2008-07-05T10:15:30Z</time></trkpt>
<trkpt lat="46.09150887" lon="7.51018524"><ele>1434.905029</ele><time>2008-07-05T10:15:58Z</time></trkpt>
<trkpt lat="46.09157324" lon="7.51012087"><ele>1436.347168</ele><time>2008-07-05T10:16:03Z</time></trkpt>
<trkpt lat="46.09168053" lon="7.50988483"><ele>1439.230957</ele><time>2008-07-05T10:16:17Z</time></trkpt>
<trkpt lat="46.09191656" lon="7.50997066"><ele>1442.11499</ele><time>2008-07-05T10:16:31Z</time></trkpt>
<trkpt lat="46.09236717" lon="7.51003504"><ele>1449.324707</ele><time>2008-07-05T10:16:59Z</time></trkpt>
<trkpt lat="46.09283924" lon="7.51018524"><ele>1456.053955</ele><time>2008-07-05T10:17:35Z</time></trkpt>
<trkpt lat="46.09303236" lon="7.51014233"><ele>1458.937988</ele><time>2008-07-05T10:17:47Z</time></trkpt>
<trkpt lat="46.09326839" lon="7.50997066"><ele>1461.822021</ele><time>2008-07-05T10:18:05Z</time></trkpt>
<trkpt lat="46.09344006" lon="7.50975609"><ele>1463.744385</ele><time>2008-07-05T10:18:19Z</time></trkpt>
<trkpt lat="46.09365463" lon="7.50954151"><ele>1465.186523</ele><time>2008-07-05T10:18:35Z</time></trkpt>
<trkpt lat="46.09389067" lon="7.50924110"><ele>1468.55127</ele><time>2008-07-05T10:18:53Z</time></trkpt>
<trkpt lat="46.09410524" lon="7.50911236"><ele>1470.473877</ele><time>2008-07-05T10:19:08Z</time></trkpt>
<trkpt lat="46.09425545" lon="7.50928402"><ele>1470.473877</ele><time>2008-07-05T10:19:19Z</time></trkpt>
<trkpt lat="46.09429836" lon="7.50930548"><ele>1470.95459</ele><time>2008-07-05T10:19:22Z</time></trkpt>
<trkpt lat="46.09442711" lon="7.50887632"><ele>1472.396484</ele><time>2008-07-05T10:19:42Z</time></trkpt>
<trkpt lat="46.09453440" lon="7.50864029"><ele>1475.280273</ele><time>2008-07-05T10:19:55Z</time></trkpt>
<trkpt lat="46.09500647" lon="7.50851154"><ele>1482.490234</ele><time>2008-07-05T10:20:24Z</time></trkpt>
<trkpt lat="46.09524250" lon="7.50829697"><ele>1485.374268</ele><time>2008-07-05T10:20:40Z</time></trkpt>
<trkpt lat="46.09541416" lon="7.50801802"><ele>1488.739014</ele><time>2008-07-05T10:20:57Z</time></trkpt>
<trkpt lat="46.09545708" lon="7.50801802"><ele>1488.739014</ele><time>2008-07-05T10:21:00Z</time></trkpt>
<trkpt lat="46.09552145" lon="7.50812531"><ele>1489.700195</ele><time>2008-07-05T10:21:07Z</time></trkpt>
<trkpt lat="46.09541416" lon="7.50838280"><ele>1492.584229</ele><time>2008-07-05T10:21:22Z</time></trkpt>
<trkpt lat="46.09485626" lon="7.50926256"><ele>1503.158691</ele><time>2008-07-05T10:22:34Z</time></trkpt>
<trkpt lat="46.09498501" lon="7.50977755"><ele>1509.887695</ele><time>2008-07-05T10:23:00Z</time></trkpt>
<trkpt lat="46.09498501" lon="7.50986338"><ele>1510.849121</ele><time>2008-07-05T10:23:04Z</time></trkpt>
<trkpt lat="46.09462023" lon="7.51020670"><ele>1518.539795</ele><time>2008-07-05T10:23:39Z</time></trkpt>
<trkpt lat="46.09455585" lon="7.51029253"><ele>1519.981689</ele><time>2008-07-05T10:23:45Z</time></trkpt>
<trkpt lat="46.09434128" lon="7.51164436"><ele>1533.440186</ele><time>2008-07-05T10:25:02Z</time></trkpt>
<trkpt lat="46.09421253" lon="7.51185894"><ele>1533.440186</ele><time>2008-07-05T10:25:19Z</time></trkpt>
<trkpt lat="46.09367609" lon="7.51166582"><ele>1538.727539</ele><time>2008-07-05T10:26:01Z</time></trkpt>
<trkpt lat="46.09352589" lon="7.51166582"><ele>1539.688721</ele><time>2008-07-05T10:26:16Z</time></trkpt>
<trkpt lat="46.09260321" lon="7.51235247"><ele>1550.743896</ele><time>2008-07-05T10:27:37Z</time></trkpt>
<trkpt lat="46.09243155" lon="7.51252413"><ele>1553.147217</ele><time>2008-07-05T10:27:52Z</time></trkpt>
<trkpt lat="46.09232426" lon="7.51276016"><ele>1553.62793</ele><time>2008-07-05T10:28:04Z</time></trkpt>
<trkpt lat="46.09225988" lon="7.51278162"><ele>1554.589111</ele><time>2008-07-05T10:28:09Z</time></trkpt>
<trkpt lat="46.09135866" lon="7.51286745"><ele>1556.992432</ele><time>2008-07-05T10:29:09Z</time></trkpt>
<trkpt lat="46.09118700" lon="7.51286745"><ele>1558.434326</ele><time>2008-07-05T10:29:19Z</time></trkpt>
<trkpt lat="46.09116554" lon="7.51282454"><ele>1558.915039</ele><time>2008-07-05T10:29:24Z</time></trkpt>
<trkpt lat="46.09118700" lon="7.51282454"><ele>1558.434326</ele><time>2008-07-05T10:29:39Z</time></trkpt>
<trkpt lat="46.09110117" lon="7.51295328"><ele>1550.263428</ele><time>2008-07-05T10:30:56Z</time></trkpt>
<trkpt lat="46.09071493" lon="7.51291037"><ele>1559.876221</ele><time>2008-07-05T10:31:28Z</time></trkpt>
<trkpt lat="46.08998537" lon="7.51295328"><ele>1563.721436</ele><time>2008-07-05T10:32:12Z</time></trkpt>
<trkpt lat="46.09013557" lon="7.51301765"><ele>1572.854248</ele><time>2008-07-05T10:34:54Z</time></trkpt>
<trkpt lat="46.09090805" lon="7.51299620"><ele>1586.793213</ele><time>2008-07-05T10:36:07Z</time></trkpt>
<trkpt lat="46.09148741" lon="7.51310349"><ele>1587.754639</ele><time>2008-07-05T10:36:33Z</time></trkpt>
<trkpt lat="46.09221697" lon="7.51340389"><ele>1589.196533</ele><time>2008-07-05T10:37:15Z</time></trkpt>
<trkpt lat="46.09249592" lon="7.51361847"><ele>1590.638428</ele><time>2008-07-05T10:37:50Z</time></trkpt>
<trkpt lat="46.09247446" lon="7.51363993"><ele>1586.312744</ele><time>2008-07-05T10:38:03Z</time></trkpt>
<trkpt lat="46.09281778" lon="7.51357555"><ele>1594.003174</ele><time>2008-07-05T10:38:34Z</time></trkpt>
<trkpt lat="46.09316111" lon="7.51338243"><ele>1603.135742</ele><time>2008-07-05T10:39:04Z</time></trkpt>
<trkpt lat="46.09344006" lon="7.51342535"><ele>1610.345459</ele><time>2008-07-05T10:39:35Z</time></trkpt>
<trkpt lat="46.09389067" lon="7.51359701"><ele>1619.95874</ele><time>2008-07-05T10:40:30Z</time></trkpt>
<trkpt lat="46.09404087" lon="7.51359701"><ele>1623.323486</ele><time>2008-07-05T10:40:48Z</time></trkpt>
<trkpt lat="46.09408379" lon="7.51363993"><ele>1624.284668</ele><time>2008-07-05T10:40:54Z</time></trkpt>
<trkpt lat="46.09440565" lon="7.51428366"><ele>1628.130127</ele><time>2008-07-05T10:43:47Z</time></trkpt>
<trkpt lat="46.09498501" lon="7.51439095"><ele>1627.168701</ele><time>2008-07-05T10:43:59Z</time></trkpt>
<trkpt lat="46.09517813" lon="7.51439095"><ele>1626.687988</ele><time>2008-07-05T10:44:03Z</time></trkpt>
<trkpt lat="46.09556437" lon="7.51424074"><ele>1624.765381</ele><time>2008-07-05T10:44:09Z</time></trkpt>
<trkpt lat="46.09575748" lon="7.51404762"><ele>1624.284668</ele><time>2008-07-05T10:44:13Z</time></trkpt>
<trkpt lat="46.09599352" lon="7.51400471"><ele>1622.842773</ele><time>2008-07-05T10:44:18Z</time></trkpt>
<trkpt lat="46.09650850" lon="7.51428366"><ele>1624.765381</ele><time>2008-07-05T10:44:38Z</time></trkpt>
<trkpt lat="46.09719515" lon="7.51419783"><ele>1631.975342</ele><time>2008-07-05T10:45:21Z</time></trkpt>
<trkpt lat="46.09751701" lon="7.51385450"><ele>1636.30127</ele><time>2008-07-05T10:45:47Z</time></trkpt>
<trkpt lat="46.09807491" lon="7.51293182"><ele>1639.665771</ele><time>2008-07-05T10:46:31Z</time></trkpt>
<trkpt lat="46.09843969" lon="7.51295328"><ele>1645.914551</ele><time>2008-07-05T10:46:58Z</time></trkpt>
<trkpt lat="46.09858990" lon="7.51301765"><ele>1649.759766</ele><time>2008-07-05T10:47:07Z</time></trkpt>
<trkpt lat="46.09867573" lon="7.51355410"><ele>1650.720947</ele><time>2008-07-05T10:47:36Z</time></trkpt>
<trkpt lat="46.09858990" lon="7.51361847"><ele>1652.643555</ele><time>2008-07-05T10:47:43Z</time></trkpt>
<trkpt lat="46.09856844" lon="7.51383305"><ele>1657.930908</ele><time>2008-07-05T10:47:57Z</time></trkpt>
<trkpt lat="46.09843969" lon="7.51415491"><ele>1663.69873</ele><time>2008-07-05T10:48:20Z</time></trkpt>
<trkpt lat="46.09846115" lon="7.51421928"><ele>1665.140869</ele><time>2008-07-05T10:48:24Z</time></trkpt>
<trkpt lat="46.09852552" lon="7.51426220"><ele>1669.466797</ele><time>2008-07-05T10:48:33Z</time></trkpt>
<trkpt lat="46.09856844" lon="7.51417637"><ele>1670.908691</ele><time>2008-07-05T10:48:40Z</time></trkpt>
<trkpt lat="46.09863281" lon="7.51411200"><ele>1673.79248</ele><time>2008-07-05T10:48:48Z</time></trkpt>
<trkpt lat="46.09867573" lon="7.51419783"><ele>1674.273193</ele><time>2008-07-05T10:48:54Z</time></trkpt>
<trkpt lat="46.09863281" lon="7.51475573"><ele>1678.118652</ele><time>2008-07-05T10:49:23Z</time></trkpt>
<trkpt lat="46.09856844" lon="7.51494884"><ele>1679.560547</ele><time>2008-07-05T10:49:35Z</time></trkpt>
<trkpt lat="46.09863281" lon="7.51507759"><ele>1671.869873</ele><time>2008-07-05T10:52:16Z</time></trkpt>
<trkpt lat="46.09867573" lon="7.51507759"><ele>1675.234375</ele><time>2008-07-05T10:52:52Z</time></trkpt>
<trkpt lat="46.09854698" lon="7.51514196"><ele>1675.234375</ele><time>2008-07-05T10:52:58Z</time></trkpt>
<trkpt lat="46.09837532" lon="7.51537800"><ele>1674.753906</ele><time>2008-07-05T10:53:03Z</time></trkpt>
<trkpt lat="46.09790325" lon="7.51580715"><ele>1671.38916</ele><time>2008-07-05T10:53:18Z</time></trkpt>
<trkpt lat="46.09788179" lon="7.51580715"><ele>1671.869873</ele><time>2008-07-05T10:53:26Z</time></trkpt>
<trkpt lat="46.09788179" lon="7.51578569"><ele>1675.234375</ele><time>2008-07-05T10:54:33Z</time></trkpt>
<trkpt lat="46.09783888" lon="7.51591444"><ele>1675.715088</ele><time>2008-07-05T10:54:43Z</time></trkpt>
<trkpt lat="46.09779596" lon="7.51595736"><ele>1675.715088</ele><time>2008-07-05T10:54:47Z</time></trkpt>
<trkpt lat="46.09768867" lon="7.51632214"><ele>1681.963867</ele><time>2008-07-05T10:55:12Z</time></trkpt>
<trkpt lat="46.09723806" lon="7.51679420"><ele>1686.770264</ele><time>2008-07-05T10:55:56Z</time></trkpt>
<trkpt lat="46.09708786" lon="7.51700878"><ele>1689.654297</ele><time>2008-07-05T10:56:12Z</time></trkpt>
<trkpt lat="46.09693766" lon="7.51715899"><ele>1692.057861</ele><time>2008-07-05T10:56:24Z</time></trkpt>
<trkpt lat="46.09659433" lon="7.51733065"><ele>1695.422363</ele><time>2008-07-05T10:56:53Z</time></trkpt>
<trkpt lat="46.09646559" lon="7.51750231"><ele>1695.422363</ele><time>2008-07-05T10:57:10Z</time></trkpt>
<trkpt lat="46.09629393" lon="7.51758814"><ele>1694.94165</ele><time>2008-07-05T10:57:27Z</time></trkpt>
<trkpt lat="46.09562874" lon="7.51775980"><ele>1695.422363</ele><time>2008-07-05T10:58:22Z</time></trkpt>
<trkpt lat="46.09547853" lon="7.51786709"><ele>1695.422363</ele><time>2008-07-05T10:58:40Z</time></trkpt>
<trkpt lat="46.09543562" lon="7.51784563"><ele>1695.422363</ele><time>2008-07-05T10:58:45Z</time></trkpt>
<trkpt lat="46.09532833" lon="7.51756668"><ele>1697.825684</ele><time>2008-07-05T10:59:10Z</time></trkpt>
<trkpt lat="46.09519958" lon="7.51763105"><ele>1702.151367</ele><time>2008-07-05T10:59:25Z</time></trkpt>
<trkpt lat="46.09513521" lon="7.51780272"><ele>1704.554688</ele><time>2008-07-05T10:59:46Z</time></trkpt>
<trkpt lat="46.09565020" lon="7.51765251"><ele>1759.350098</ele><time>2008-07-05T11:00:36Z</time></trkpt>
<trkpt lat="46.09530687" lon="7.51793146"><ele>1758.388672</ele><time>2008-07-05T11:01:29Z</time></trkpt>
<trkpt lat="46.09498501" lon="7.51795292"><ele>1757.42749</ele><time>2008-07-05T11:02:02Z</time></trkpt>
<trkpt lat="46.09464169" lon="7.51778126"><ele>1756.946777</ele><time>2008-07-05T11:02:53Z</time></trkpt>
<trkpt lat="46.09408379" lon="7.51763105"><ele>1755.023926</ele><time>2008-07-05T11:03:35Z</time></trkpt>
<trkpt lat="46.09382629" lon="7.51767397"><ele>1753.582031</ele><time>2008-07-05T11:03:53Z</time></trkpt>
<trkpt lat="46.09359026" lon="7.51778126"><ele>1755.023926</ele><time>2008-07-05T11:04:11Z</time></trkpt>
<trkpt lat="46.09346151" lon="7.51810312"><ele>1766.559814</ele><time>2008-07-05T11:04:42Z</time></trkpt>
<trkpt lat="46.09348297" lon="7.51812458"><ele>1763.675781</ele><time>2008-07-05T11:05:00Z</time></trkpt>
<trkpt lat="46.09346151" lon="7.51825333"><ele>1766.559814</ele><time>2008-07-05T11:05:19Z</time></trkpt>
<trkpt lat="46.09333277" lon="7.51846790"><ele>1770.885742</ele><time>2008-07-05T11:05:34Z</time></trkpt>
<trkpt lat="46.09318256" lon="7.51861811"><ele>1773.769775</ele><time>2008-07-05T11:05:51Z</time></trkpt>
<trkpt lat="46.09279633" lon="7.51878977"><ele>1779.537598</ele><time>2008-07-05T11:06:23Z</time></trkpt>
<trkpt lat="46.09249592" lon="7.51913309"><ele>1783.382813</ele><time>2008-07-05T11:07:01Z</time></trkpt>
<trkpt lat="46.09206676" lon="7.51954079"><ele>1791.554199</ele><time>2008-07-05T11:07:53Z</time></trkpt>
<trkpt lat="46.09172344" lon="7.51979828"><ele>1796.36084</ele><time>2008-07-05T11:08:31Z</time></trkpt>
<trkpt lat="46.09135866" lon="7.51999140"><ele>1803.089844</ele><time>2008-07-05T11:09:17Z</time></trkpt>
<trkpt lat="46.09122992" lon="7.52009869"><ele>1807.416016</ele><time>2008-07-05T11:09:39Z</time></trkpt>
<trkpt lat="46.09129429" lon="7.52012014"><ele>1825.200195</ele><time>2008-07-05T11:10:57Z</time></trkpt>
<trkpt lat="46.09086514" lon="7.51986265"><ele>1817.029053</ele><time>2008-07-05T11:11:36Z</time></trkpt>
<trkpt lat="46.09009266" lon="7.51964808"><ele>1799.725342</ele><time>2008-07-05T11:11:51Z</time></trkpt>
<trkpt lat="46.08906269" lon="7.51973391"><ele>1788.67041</ele><time>2008-07-05T11:12:36Z</time></trkpt>
<trkpt lat="46.08876228" lon="7.51966953"><ele>1782.421631</ele><time>2008-07-05T11:12:46Z</time></trkpt>
<trkpt lat="46.08846188" lon="7.51984119"><ele>1779.537598</ele><time>2008-07-05T11:12:57Z</time></trkpt>
<trkpt lat="46.08833313" lon="7.52005577"><ele>1777.134521</ele><time>2008-07-05T11:13:06Z</time></trkpt>
<trkpt lat="46.08826876" lon="7.52007723"><ele>1775.21167</ele><time>2008-07-05T11:13:09Z</time></trkpt>
<trkpt lat="46.08798981" lon="7.51969099"><ele>1770.405029</ele><time>2008-07-05T11:13:24Z</time></trkpt>
<trkpt lat="46.08796835" lon="7.51969099"><ele>1769.924316</ele><time>2008-07-05T11:14:18Z</time></trkpt>
<trkpt lat="46.08788252" lon="7.51981974"><ele>1765.598633</ele><time>2008-07-05T11:14:29Z</time></trkpt>
<trkpt lat="46.08790398" lon="7.51986265"><ele>1767.520996</ele><time>2008-07-05T11:15:20Z</time></trkpt>
<trkpt lat="46.08781815" lon="7.51981974"><ele>1765.11792</ele><time>2008-07-05T11:15:24Z</time></trkpt>
<trkpt lat="46.08766794" lon="7.51930475"><ele>1755.504639</ele><time>2008-07-05T11:15:35Z</time></trkpt>
<trkpt lat="46.08760357" lon="7.51883268"><ele>1747.333496</ele><time>2008-07-05T11:15:43Z</time></trkpt>
<trkpt lat="46.08732462" lon="7.51842499"><ele>1739.642822</ele><time>2008-07-05T11:15:57Z</time></trkpt>
<trkpt lat="46.08730316" lon="7.51844645"><ele>1739.642822</ele><time>2008-07-05T11:16:04Z</time></trkpt>
<trkpt lat="46.08738899" lon="7.51833916"><ele>1739.162109</ele><time>2008-07-05T11:18:59Z</time></trkpt>
<trkpt lat="46.08749628" lon="7.51829624"><ele>1739.642822</ele><time>2008-07-05T11:19:07Z</time></trkpt>
<trkpt lat="46.08775377" lon="7.51833916"><ele>1737.720215</ele><time>2008-07-05T11:19:16Z</time></trkpt>
<trkpt lat="46.08803272" lon="7.51844645"><ele>1735.797607</ele><time>2008-07-05T11:19:22Z</time></trkpt>
<trkpt lat="46.08901978" lon="7.51821041"><ele>1733.394287</ele><time>2008-07-05T11:19:34Z</time></trkpt>
<trkpt lat="46.09011412" lon="7.51737356"><ele>1726.18457</ele><time>2008-07-05T11:19:44Z</time></trkpt>
<trkpt lat="46.09125137" lon="7.51666546"><ele>1719.455322</ele><time>2008-07-05T11:19:54Z</time></trkpt>
<trkpt lat="46.09195948" lon="7.51610756"><ele>1714.167969</ele><time>2008-07-05T11:20:02Z</time></trkpt>
<trkpt lat="46.09309673" lon="7.51619339"><ele>1712.245361</ele><time>2008-07-05T11:20:16Z</time></trkpt>
<trkpt lat="46.09335423" lon="7.51597881"><ele>1710.803467</ele><time>2008-07-05T11:20:20Z</time></trkpt>
<trkpt lat="46.09348297" lon="7.51574278"><ele>1706.477295</ele><time>2008-07-05T11:20:23Z</time></trkpt>
<trkpt lat="46.09391212" lon="7.51544237"><ele>1703.593506</ele><time>2008-07-05T11:20:29Z</time></trkpt>
<trkpt lat="46.09444857" lon="7.51527071"><ele>1703.112793</ele><time>2008-07-05T11:20:35Z</time></trkpt>
<trkpt lat="46.09582186" lon="7.51587152"><ele>1698.786865</ele><time>2008-07-05T11:20:49Z</time></trkpt>
<trkpt lat="46.09625101" lon="7.51602173"><ele>1693.980469</ele><time>2008-07-05T11:20:54Z</time></trkpt>
<trkpt lat="46.09633684" lon="7.51591444"><ele>1687.250977</ele><time>2008-07-05T11:21:00Z</time></trkpt>
<trkpt lat="46.09590769" lon="7.51585007"><ele>1675.715088</ele><time>2008-07-05T11:21:13Z</time></trkpt>
<trkpt lat="46.09537125" lon="7.51550674"><ele>1667.543945</ele><time>2008-07-05T11:21:20Z</time></trkpt>
<trkpt lat="46.09496355" lon="7.51529217"><ele>1659.372803</ele><time>2008-07-05T11:21:24Z</time></trkpt>
<trkpt lat="46.09468460" lon="7.51492739"><ele>1652.162842</ele><time>2008-07-05T11:21:28Z</time></trkpt>
<trkpt lat="46.09431982" lon="7.51396179"><ele>1641.107666</ele><time>2008-07-05T11:21:36Z</time></trkpt>
<trkpt lat="46.09393358" lon="7.51372576"><ele>1635.339844</ele><time>2008-07-05T11:21:41Z</time></trkpt>
<trkpt lat="46.09273195" lon="7.51402617"><ele>1622.362061</ele><time>2008-07-05T11:21:52Z</time></trkpt>
<trkpt lat="46.09221697" lon="7.51391888"><ele>1618.997559</ele><time>2008-07-05T11:21:56Z</time></trkpt>
<trkpt lat="46.09165907" lon="7.51355410"><ele>1616.594238</ele><time>2008-07-05T11:22:01Z</time></trkpt>
<trkpt lat="46.09099388" lon="7.51323223"><ele>1613.229736</ele><time>2008-07-05T11:22:08Z</time></trkpt>
<trkpt lat="46.08989954" lon="7.51301765"><ele>1604.577637</ele><time>2008-07-05T11:22:18Z</time></trkpt>
<trkpt lat="46.08884811" lon="7.51293182"><ele>1597.36792</ele><time>2008-07-05T11:22:26Z</time></trkpt>
<trkpt lat="46.08801126" lon="7.51271725"><ele>1593.041748</ele><time>2008-07-05T11:22:34Z</time></trkpt>
<trkpt lat="46.08691692" lon="7.51263142"><ele>1579.583252</ele><time>2008-07-05T11:22:45Z</time></trkpt>
<trkpt lat="46.08597279" lon="7.51235247"><ele>1573.81543</ele><time>2008-07-05T11:22:56Z</time></trkpt>
<trkpt lat="46.08511448" lon="7.51183748"><ele>1565.644531</ele><time>2008-07-05T11:23:04Z</time></trkpt>
<trkpt lat="46.08414888" lon="7.51136541"><ele>1555.069824</ele><time>2008-07-05T11:23:12Z</time></trkpt>
<trkpt lat="46.08341932" lon="7.51110792"><ele>1552.185791</ele><time>2008-07-05T11:23:22Z</time></trkpt>
<trkpt lat="46.08318329" lon="7.51067877"><ele>1549.782715</ele><time>2008-07-05T11:23:27Z</time></trkpt>
<trkpt lat="46.08288288" lon="7.51065731"><ele>1541.611328</ele><time>2008-07-05T11:23:33Z</time></trkpt>
<trkpt lat="46.08234644" lon="7.51127958"><ele>1534.401611</ele><time>2008-07-05T11:23:43Z</time></trkpt>
<trkpt lat="46.08228207" lon="7.51136541"><ele>1533.440186</ele><time>2008-07-05T11:23:44Z</time></trkpt>
<trkpt lat="46.08185291" lon="7.51228809"><ele>1521.904297</ele><time>2008-07-05T11:23:52Z</time></trkpt>
<trkpt lat="46.08176708" lon="7.51256704"><ele>1518.539795</ele><time>2008-07-05T11:23:54Z</time></trkpt>
<trkpt lat="46.08148813" lon="7.51295328"><ele>1511.329834</ele><time>2008-07-05T11:23:58Z</time></trkpt>
<trkpt lat="46.08138084" lon="7.51329660"><ele>1506.523193</ele><time>2008-07-05T11:24:02Z</time></trkpt>
<trkpt lat="46.08123064" lon="7.51327515"><ele>1500.755371</ele><time>2008-07-05T11:24:07Z</time></trkpt>
<trkpt lat="46.08125210" lon="7.51306057"><ele>1497.871338</ele><time>2008-07-05T11:24:10Z</time></trkpt>
<trkpt lat="46.08138084" lon="7.51250267"><ele>1493.064697</ele><time>2008-07-05T11:24:16Z</time></trkpt>
<trkpt lat="46.08138084" lon="7.51194477"><ele>1488.258301</ele><time>2008-07-05T11:24:21Z</time></trkpt>
<trkpt lat="46.08103752" lon="7.50947714"><ele>1473.35791</ele><time>2008-07-05T11:24:43Z</time></trkpt>
<trkpt lat="46.08108044" lon="7.50868320"><ele>1471.435059</ele><time>2008-07-05T11:24:52Z</time></trkpt>
<trkpt lat="46.08114481" lon="7.50846863"><ele>1469.512695</ele><time>2008-07-05T11:24:59Z</time></trkpt>
<trkpt lat="46.08133793" lon="7.50840425"><ele>1466.147705</ele><time>2008-07-05T11:25:08Z</time></trkpt>
<trkpt lat="46.08307600" lon="7.50859737"><ele>1457.976807</ele><time>2008-07-05T11:25:44Z</time></trkpt>
<trkpt lat="46.08369827" lon="7.50874758"><ele>1454.612061</ele><time>2008-07-05T11:25:57Z</time></trkpt>
<trkpt lat="46.08440638" lon="7.50898361"><ele>1454.131592</ele><time>2008-07-05T11:26:10Z</time></trkpt>
<trkpt lat="46.08507156" lon="7.50900507"><ele>1450.766602</ele><time>2008-07-05T11:26:21Z</time></trkpt>
<trkpt lat="46.08592987" lon="7.50896215"><ele>1441.634277</ele><time>2008-07-05T11:26:32Z</time></trkpt>
<trkpt lat="46.08730316" lon="7.50898361"><ele>1434.424316</ele><time>2008-07-05T11:26:47Z</time></trkpt>
<trkpt lat="46.08829021" lon="7.50904799"><ele>1431.059814</ele><time>2008-07-05T11:26:59Z</time></trkpt>
<trkpt lat="46.08940601" lon="7.50894070"><ele>1427.695068</ele><time>2008-07-05T11:27:16Z</time></trkpt>
<trkpt lat="46.09054327" lon="7.50859737"><ele>1423.849854</ele><time>2008-07-05T11:27:36Z</time></trkpt>
<trkpt lat="46.09060764" lon="7.50840425"><ele>1423.849854</ele><time>2008-07-05T11:27:40Z</time></trkpt>
<trkpt lat="46.09052181" lon="7.50778198"><ele>1423.369385</ele><time>2008-07-05T11:27:51Z</time></trkpt>
<trkpt lat="46.09039307" lon="7.50746012"><ele>1424.811279</ele><time>2008-07-05T11:28:01Z</time></trkpt>
<trkpt lat="46.09028578" lon="7.50735283"><ele>1424.330566</ele><time>2008-07-05T11:28:06Z</time></trkpt>
<trkpt lat="46.09035015" lon="7.50720263"><ele>1424.330566</ele><time>2008-07-05T11:28:10Z</time></trkpt>
<trkpt lat="46.09043598" lon="7.50711679"><ele>1423.369385</ele><time>2008-07-05T11:28:14Z</time></trkpt>
<trkpt lat="46.09045744" lon="7.50694513"><ele>1421.927246</ele><time>2008-07-05T11:28:18Z</time></trkpt>
<trkpt lat="46.09045744" lon="7.50597954"><ele>1418.081787</ele><time>2008-07-05T11:28:36Z</time></trkpt>
<trkpt lat="46.09086514" lon="7.50580788"><ele>1416.639893</ele><time>2008-07-05T11:28:48Z</time></trkpt>
<trkpt lat="46.09155178" lon="7.50561476"><ele>1415.197998</ele><time>2008-07-05T11:29:07Z</time></trkpt>
<trkpt lat="46.09157324" lon="7.50533581"><ele>1416.15918</ele><time>2008-07-05T11:29:16Z</time></trkpt>
<trkpt lat="46.09176636" lon="7.50518560"><ele>1414.717285</ele><time>2008-07-05T11:29:27Z</time></trkpt>
<trkpt lat="46.09221697" lon="7.50531435"><ele>1410.391357</ele><time>2008-07-05T11:29:41Z</time></trkpt>
<trkpt lat="46.09281778" lon="7.50531435"><ele>1405.584961</ele><time>2008-07-05T11:29:57Z</time></trkpt>
<trkpt lat="46.09331131" lon="7.50524998"><ele>1404.143066</ele><time>2008-07-05T11:30:09Z</time></trkpt>
<trkpt lat="46.09404087" lon="7.50544310"><ele>1401.258789</ele><time>2008-07-05T11:30:25Z</time></trkpt>
<trkpt lat="46.09479189" lon="7.50550747"><ele>1401.739502</ele><time>2008-07-05T11:30:41Z</time></trkpt>
<trkpt lat="46.09552145" lon="7.50531435"><ele>1400.297607</ele><time>2008-07-05T11:30:58Z</time></trkpt>
<trkpt lat="46.09620810" lon="7.50503540"><ele>1400.297607</ele><time>2008-07-05T11:31:14Z</time></trkpt>
<trkpt lat="46.09659433" lon="7.50458479"><ele>1398.855469</ele><time>2008-07-05T11:31:24Z</time></trkpt>
<trkpt lat="46.09728098" lon="7.50417709"><ele>1395.97168</ele><time>2008-07-05T11:31:39Z</time></trkpt>
<trkpt lat="46.09758139" lon="7.50409126"><ele>1395.490967</ele><time>2008-07-05T11:31:45Z</time></trkpt>
<trkpt lat="46.09796762" lon="7.50357628"><ele>1393.087646</ele><time>2008-07-05T11:31:55Z</time></trkpt>
<trkpt lat="46.09833241" lon="7.50288963"><ele>1390.684326</ele><time>2008-07-05T11:32:06Z</time></trkpt>
<trkpt lat="46.09869719" lon="7.50256777"><ele>1389.242432</ele><time>2008-07-05T11:32:16Z</time></trkpt>
<trkpt lat="46.09919071" lon="7.50228882"><ele>1390.203857</ele><time>2008-07-05T11:32:28Z</time></trkpt>
<trkpt lat="46.09944820" lon="7.50209570"><ele>1389.723145</ele><time>2008-07-05T11:32:34Z</time></trkpt>
<trkpt lat="46.09968424" lon="7.50175238"><ele>1387.31958</ele><time>2008-07-05T11:32:40Z</time></trkpt>
<trkpt lat="46.09979153" lon="7.50147343"><ele>1386.838867</ele><time>2008-07-05T11:32:45Z</time></trkpt>
<trkpt lat="46.10026360" lon="7.50117302"><ele>1385.877686</ele><time>2008-07-05T11:32:55Z</time></trkpt>
<trkpt lat="46.10137939" lon="7.50033617"><ele>1384.916504</ele><time>2008-07-05T11:33:25Z</time></trkpt>
<trkpt lat="46.10204458" lon="7.49964952"><ele>1387.800293</ele><time>2008-07-05T11:33:37Z</time></trkpt>
<trkpt lat="46.10249519" lon="7.49941349"><ele>1387.800293</ele><time>2008-07-05T11:33:49Z</time></trkpt>
<trkpt lat="46.10301018" lon="7.49883413"><ele>1386.358398</ele><time>2008-07-05T11:34:02Z</time></trkpt>
<trkpt lat="46.10331059" lon="7.49859810"><ele>1385.877686</ele><time>2008-07-05T11:34:10Z</time></trkpt>
<trkpt lat="46.10358953" lon="7.49853373"><ele>1385.877686</ele><time>2008-07-05T11:34:17Z</time></trkpt>
<trkpt lat="46.10416889" lon="7.49806166"><ele>1382.993652</ele><time>2008-07-05T11:34:27Z</time></trkpt>
<trkpt lat="46.10442638" lon="7.49771833"><ele>1381.071289</ele><time>2008-07-05T11:34:32Z</time></trkpt>
<trkpt lat="46.10539198" lon="7.49705315"><ele>1375.783936</ele><time>2008-07-05T11:34:48Z</time></trkpt>
<trkpt lat="46.10569239" lon="7.49664545"><ele>1374.822754</ele><time>2008-07-05T11:34:55Z</time></trkpt>
<trkpt lat="46.10637903" lon="7.49593735"><ele>1371.938477</ele><time>2008-07-05T11:35:10Z</time></trkpt>
<trkpt lat="46.10697985" lon="7.49542236"><ele>1369.054688</ele><time>2008-07-05T11:35:22Z</time></trkpt>
<trkpt lat="46.10781670" lon="7.49482155"><ele>1367.612549</ele><time>2008-07-05T11:35:39Z</time></trkpt>
<trkpt lat="46.10884666" lon="7.49417782"><ele>1359.922119</ele><time>2008-07-05T11:35:59Z</time></trkpt>
<trkpt lat="46.10923290" lon="7.49404907"><ele>1359.44165</ele><time>2008-07-05T11:36:05Z</time></trkpt>
<trkpt lat="46.10951185" lon="7.49404907"><ele>1357.03833</ele><time>2008-07-05T11:36:10Z</time></trkpt>
<trkpt lat="46.10989809" lon="7.49437094"><ele>1357.519043</ele><time>2008-07-05T11:36:21Z</time></trkpt>
<trkpt lat="46.11011267" lon="7.49430656"><ele>1356.076904</ele><time>2008-07-05T11:36:26Z</time></trkpt>
<trkpt lat="46.11049891" lon="7.49400616"><ele>1355.115479</ele><time>2008-07-05T11:36:33Z</time></trkpt>
<trkpt lat="46.11079931" lon="7.49385595"><ele>1355.596191</ele><time>2008-07-05T11:36:38Z</time></trkpt>
<trkpt lat="46.11101389" lon="7.49361992"><ele>1357.519043</ele><time>2008-07-05T11:36:47Z</time></trkpt>
<trkpt lat="46.11129284" lon="7.49355555"><ele>1358.480225</ele><time>2008-07-05T11:36:57Z</time></trkpt>
<trkpt lat="46.11159325" lon="7.49364138"><ele>1358.480225</ele><time>2008-07-05T11:37:07Z</time></trkpt>
<trkpt lat="46.11195803" lon="7.49383450"><ele>1358.480225</ele><time>2008-07-05T11:37:20Z</time></trkpt>
<trkpt lat="46.11236572" lon="7.49387741"><ele>1357.03833</ele><time>2008-07-05T11:37:38Z</time></trkpt>
<trkpt lat="46.11240864" lon="7.49396324"><ele>1359.922119</ele><time>2008-07-05T11:37:44Z</time></trkpt>
<trkpt lat="46.11232281" lon="7.49426365"><ele>1361.844971</ele><time>2008-07-05T11:37:57Z</time></trkpt>
<trkpt lat="46.11204386" lon="7.49462843"><ele>1356.076904</ele><time>2008-07-05T11:38:12Z</time></trkpt>
<trkpt lat="46.11182928" lon="7.49501467"><ele>1357.519043</ele><time>2008-07-05T11:38:26Z</time></trkpt>
<trkpt lat="46.11176491" lon="7.49518633"><ele>1361.844971</ele><time>2008-07-05T11:38:34Z</time></trkpt>
<trkpt lat="46.11144304" lon="7.49559402"><ele>1365.690186</ele><time>2008-07-05T11:38:50Z</time></trkpt>
<trkpt lat="46.11118555" lon="7.49585152"><ele>1368.093262</ele><time>2008-07-05T11:39:01Z</time></trkpt>
<trkpt lat="46.11114264" lon="7.49583006"><ele>1367.612549</ele><time>2008-07-05T11:39:09Z</time></trkpt>
<trkpt lat="46.11090660" lon="7.49632359"><ele>1367.612549</ele><time>2008-07-05T11:39:39Z</time></trkpt>
<trkpt lat="46.11060619" lon="7.49679565"><ele>1368.573975</ele><time>2008-07-05T11:39:52Z</time></trkpt>
<trkpt lat="46.11039162" lon="7.49728918"><ele>1370.496582</ele><time>2008-07-05T11:40:03Z</time></trkpt>
<trkpt lat="46.11039162" lon="7.49789000"><ele>1372.419434</ele><time>2008-07-05T11:40:14Z</time></trkpt>
<trkpt lat="46.11049891" lon="7.49846935"><ele>1373.380859</ele><time>2008-07-05T11:40:26Z</time></trkpt>
<trkpt lat="46.11037016" lon="7.49874830"><ele>1374.342041</ele><time>2008-07-05T11:40:35Z</time></trkpt>
<trkpt lat="46.11006975" lon="7.49915600"><ele>1377.706543</ele><time>2008-07-05T11:40:50Z</time></trkpt>
<trkpt lat="46.10974789" lon="7.49941349"><ele>1381.071289</ele><time>2008-07-05T11:41:05Z</time></trkpt>
<trkpt lat="46.10949039" lon="7.49947786"><ele>1382.513184</ele><time>2008-07-05T11:41:17Z</time></trkpt>
<trkpt lat="46.10944748" lon="7.49956369"><ele>1383.955078</ele><time>2008-07-05T11:41:22Z</time></trkpt>
<trkpt lat="46.10944748" lon="7.49964952"><ele>1386.358398</ele><time>2008-07-05T11:41:43Z</time></trkpt>
<trkpt lat="46.10966206" lon="7.49962807"><ele>1386.358398</ele><time>2008-07-05T11:41:51Z</time></trkpt>
<trkpt lat="46.10994101" lon="7.49943495"><ele>1383.955078</ele><time>2008-07-05T11:42:00Z</time></trkpt>
<trkpt lat="46.10996246" lon="7.49962807"><ele>1383.955078</ele><time>2008-07-05T11:42:08Z</time></trkpt>
<trkpt lat="46.10981226" lon="7.49967098"><ele>1382.993652</ele><time>2008-07-05T11:42:26Z</time></trkpt>
</trkseg></trk></gpx>